createdAt,value
2023-03-24T00:00:14.958Z,6.25
2023-03-24T00:03:02.909Z,6.95
2023-03-24T00:05:30.809Z,10.02
2023-03-24T00:08:02.164Z,7.35
2023-03-24T00:10:34.917Z,5.90
2023-03-24T00:13:02.815Z,7.55
2023-03-24T00:15:30.298Z,6.20
2023-03-24T00:17:58.570Z,5.93
2023-03-24T00:20:26.489Z,7.22
2023-03-24T00:22:58.810Z,6.55
2023-03-24T00:25:36.605Z,8.82
2023-03-24T00:28:05.943Z,6.90
2023-03-24T00:30:33.782Z,7.13
2023-03-24T00:33:02.151Z,9.63
2023-03-24T00:35:29.192Z,7.25
2023-03-24T00:37:56.371Z,7.28
2023-03-24T00:40:23.612Z,6.38
2023-03-24T00:42:51.203Z,6.28
2023-03-24T00:45:23.381Z,3.78
2023-03-24T00:47:54.651Z,6.43
2023-03-24T00:50:27.160Z,5.72
2023-03-24T00:52:56.126Z,5.53
2023-03-24T00:55:23.345Z,5.45
2023-03-24T00:57:51.122Z,5.82
2023-03-24T01:00:21.614Z,5.93
2023-03-24T01:02:53.980Z,4.10
2023-03-24T01:05:28.084Z,6.40
2023-03-24T01:08:03.160Z,7.45
2023-03-24T01:10:42.652Z,4.38
2023-03-24T01:13:10.464Z,6.80
2023-03-24T01:15:38.474Z,5.00
2023-03-24T01:18:06.558Z,6.75
2023-03-24T01:20:33.681Z,4.78
2023-03-24T01:23:02.790Z,5.40
2023-03-24T01:25:30.611Z,3.47
2023-03-24T01:27:58.415Z,5.78
2023-03-24T01:30:27.766Z,5.97
2023-03-24T01:32:55.932Z,4.30
2023-03-24T01:35:27.717Z,6.65
2023-03-24T01:37:56.875Z,4.57
2023-03-24T01:40:30.482Z,7.60
2023-03-24T01:42:58.953Z,5.82
2023-03-24T01:45:51.070Z,6.35
2023-03-24T01:48:26.923Z,9.77
2023-03-24T01:51:04.620Z,7.18
2023-03-24T01:53:34.444Z,10.57
2023-03-24T01:56:03.213Z,4.50
2023-03-24T01:58:34.471Z,6.40
2023-03-24T02:01:01.574Z,3.75
2023-03-24T02:03:34.158Z,4.95
2023-03-24T02:06:02.692Z,4.22
2023-03-24T02:08:52.438Z,4.90
2023-03-24T02:11:21.305Z,6.45
2023-03-24T02:13:48.573Z,9.43
2023-03-24T02:16:39.278Z,7.82
2023-03-24T02:19:38.394Z,7.65
2023-03-24T02:22:46.912Z,5.68
2023-03-24T02:25:32.882Z,4.82
2023-03-24T02:28:18.399Z,7.00
2023-03-24T02:30:57.751Z,4.68
2023-03-24T02:33:59.891Z,4.68
2023-03-24T02:36:55.528Z,5.38
2023-03-24T02:39:40.690Z,10.05
2023-03-24T02:42:22.970Z,6.03
2023-03-24T02:45:01.800Z,6.70
2023-03-24T02:47:34.396Z,6.68
2023-03-24T02:50:27.330Z,5.60
2023-03-24T02:53:19.358Z,9.43
2023-03-24T02:56:18.297Z,6.53
2023-03-24T02:59:44.041Z,4.60
2023-03-24T03:02:19.981Z,8.18
2023-03-24T03:04:54.113Z,8.20
2023-03-24T03:07:27.468Z,6.50
2023-03-24T03:10:25.662Z,7.68
2023-03-24T03:12:57.036Z,5.85
2023-03-24T03:15:30.673Z,5.22
2023-03-24T03:18:09.339Z,6.10
2023-03-24T03:20:50.698Z,5.15
2023-03-24T03:23:23.596Z,11.07
2023-03-24T03:25:56.168Z,7.95
2023-03-24T03:28:29.981Z,7.18
2023-03-24T03:31:01.827Z,6.22
2023-03-24T03:33:46.787Z,5.88
2023-03-24T03:36:36.277Z,5.18
2023-03-24T03:39:12.020Z,7.38
2023-03-24T03:41:40.471Z,11.00
2023-03-24T03:44:07.582Z,5.68
2023-03-24T03:46:36.466Z,4.72
2023-03-24T03:49:06.565Z,6.28
2023-03-24T03:51:34.971Z,6.00
2023-03-24T03:54:05.697Z,8.52
2023-03-24T03:56:36.006Z,8.80
2023-03-24T03:59:04.283Z,7.47
2023-03-24T04:01:37.380Z,9.05
2023-03-24T04:04:20.392Z,6.53
2023-03-24T04:06:59.840Z,8.13
2023-03-24T04:09:45.918Z,6.32
2023-03-24T04:12:28.907Z,10.98
2023-03-24T04:15:26.008Z,6.00
2023-03-24T04:18:15.804Z,6.97
2023-03-24T04:21:10.310Z,7.85
2023-03-24T04:23:50.592Z,8.15
2023-03-24T04:26:54.798Z,8.85
2023-03-24T04:29:31.626Z,9.18
2023-03-24T04:31:59.247Z,13.40
2023-03-24T04:34:36.217Z,10.30
2023-03-24T04:37:12.675Z,10.65
2023-03-24T04:39:45.631Z,12.05
2023-03-24T04:42:37.934Z,9.10
2023-03-24T04:45:07.723Z,10.15
2023-03-24T04:47:43.260Z,10.25
2023-03-24T04:50:11.827Z,8.57
2023-03-24T04:52:41.387Z,13.80
2023-03-24T04:55:43.857Z,13.20
2023-03-24T04:58:11.010Z,16.73
2023-03-24T05:00:38.235Z,12.80
2023-03-24T05:03:05.590Z,14.20
2023-03-24T05:05:33.139Z,13.60
2023-03-24T05:08:00.332Z,12.93
2023-03-24T05:10:27.521Z,11.07
2023-03-24T05:12:54.416Z,8.70
2023-03-24T05:15:21.776Z,6.75
2023-03-24T05:17:48.926Z,7.88
2023-03-24T05:20:16.568Z,9.15
2023-03-24T05:22:43.491Z,9.18
2023-03-24T05:25:10.989Z,9.10
2023-03-24T05:27:38.301Z,10.38
2023-03-24T05:30:06.746Z,9.23
2023-03-24T05:32:33.668Z,7.47
2023-03-24T05:35:01.252Z,6.70
2023-03-24T05:37:28.241Z,8.02
2023-03-24T05:39:56.083Z,7.00
2023-03-24T05:42:23.216Z,8.30
2023-03-24T05:44:50.495Z,13.45
2023-03-24T05:47:20.065Z,7.70
2023-03-24T05:49:47.346Z,7.00
2023-03-24T05:52:16.444Z,9.77
2023-03-24T05:54:43.728Z,6.95
2023-03-24T05:57:16.219Z,6.70
2023-03-24T05:59:43.443Z,5.20
2023-03-24T06:02:10.723Z,6.03
2023-03-24T06:04:38.320Z,6.63
2023-03-24T06:07:05.352Z,5.60
2023-03-24T06:09:37.595Z,7.55
2023-03-24T06:12:06.297Z,6.95
2023-03-24T06:14:33.968Z,7.55
2023-03-24T06:17:01.114Z,7.82
2023-03-24T06:19:30.942Z,6.28
2023-03-24T06:22:02.815Z,6.20
2023-03-24T06:24:30.715Z,7.20
2023-03-24T06:27:02.398Z,5.82
2023-03-24T06:29:31.246Z,9.48
2023-03-24T06:31:58.171Z,9.93
2023-03-24T06:34:25.504Z,8.45
2023-03-24T06:36:53.026Z,7.40
2023-03-24T06:39:20.277Z,6.32
2023-03-24T06:41:47.565Z,7.13
2023-03-24T06:44:14.740Z,10.43
2023-03-24T06:46:42.075Z,8.88
2023-03-24T06:49:09.324Z,5.80
2023-03-24T06:51:36.365Z,8.13
2023-03-24T06:54:03.801Z,10.02
2023-03-24T06:56:30.838Z,7.05
2023-03-24T06:58:58.039Z,7.43
2023-03-24T07:01:25.045Z,9.13
2023-03-24T07:03:52.349Z,5.15
2023-03-24T07:06:20.767Z,6.22
2023-03-24T07:08:47.963Z,9.18
2023-03-24T07:11:15.587Z,8.23
2023-03-24T07:13:42.784Z,5.50
2023-03-24T07:16:09.754Z,8.82
2023-03-24T07:18:37.122Z,7.32
2023-03-24T07:21:04.255Z,7.65
2023-03-24T07:23:32.693Z,7.00
2023-03-24T07:26:00.046Z,8.55
2023-03-24T07:28:27.324Z,8.95
2023-03-24T07:30:55.448Z,7.78
2023-03-24T07:33:25.040Z,6.45
2023-03-24T07:35:57.281Z,7.10
2023-03-24T07:38:25.999Z,8.77
2023-03-24T07:40:53.118Z,9.73
2023-03-24T07:43:20.425Z,10.13
2023-03-24T07:45:47.634Z,7.30
2023-03-24T07:48:15.531Z,5.55
2023-03-24T07:50:42.841Z,6.57
2023-03-24T07:53:10.066Z,6.68
2023-03-24T07:55:40.130Z,6.82
2023-03-24T07:58:07.629Z,5.38
2023-03-24T08:00:34.671Z,8.00
2023-03-24T08:03:02.168Z,5.05
2023-03-24T08:05:30.797Z,6.57
2023-03-24T08:07:58.618Z,6.45
2023-03-24T08:10:28.569Z,5.90
2023-03-24T08:12:56.889Z,6.63
2023-03-24T08:15:24.612Z,5.68
2023-03-24T08:17:52.000Z,6.40
2023-03-24T08:20:21.409Z,9.52
2023-03-24T08:22:50.066Z,7.25
2023-03-24T08:25:19.033Z,5.68
2023-03-24T08:27:47.302Z,7.32
2023-03-24T08:30:26.497Z,7.53
2023-03-24T08:32:59.515Z,6.65
2023-03-24T08:35:29.524Z,8.95
2023-03-24T08:37:56.873Z,10.60
2023-03-24T08:40:24.457Z,8.02
2023-03-24T08:42:54.983Z,8.25
2023-03-24T08:45:24.527Z,6.28
2023-03-24T08:47:52.646Z,6.95
2023-03-24T08:50:23.923Z,7.28
2023-03-24T08:52:51.182Z,5.03
2023-03-24T08:55:19.782Z,8.40
2023-03-24T08:57:47.833Z,7.20
2023-03-24T09:00:16.712Z,8.00
2023-03-24T09:02:54.029Z,7.68
2023-03-24T09:05:36.546Z,8.75
2023-03-24T09:08:08.536Z,6.00
2023-03-24T09:10:35.781Z,7.90
2023-03-24T09:13:04.487Z,9.05
2023-03-24T09:15:31.783Z,7.35
2023-03-24T09:17:59.250Z,10.02
2023-03-24T09:20:26.506Z,13.65
2023-03-24T09:22:53.707Z,7.93
2023-03-24T09:25:21.604Z,6.97
2023-03-24T09:27:49.136Z,10.60
2023-03-24T09:30:17.715Z,5.70
2023-03-24T09:32:46.228Z,7.13
2023-03-24T09:35:13.747Z,9.70
2023-03-24T09:37:43.031Z,9.23
2023-03-24T09:40:20.577Z,11.93
2023-03-24T09:43:11.135Z,11.10
2023-03-24T09:46:02.216Z,12.77
2023-03-24T09:48:39.506Z,6.70
2023-03-24T09:51:21.804Z,7.45
2023-03-24T09:53:54.817Z,7.13
2023-03-24T09:56:23.652Z,8.85
2023-03-24T10:01:27.200Z,8.48
2023-03-24T10:03:58.988Z,6.63
2023-03-24T10:06:31.051Z,9.25
2023-03-24T10:09:16.248Z,10.57
2023-03-24T10:12:02.901Z,10.23
2023-03-24T10:14:51.754Z,7.68
2023-03-24T10:17:33.035Z,9.45
2023-03-24T10:20:30.921Z,9.52
2023-03-24T10:23:04.445Z,7.40
2023-03-24T10:25:50.463Z,6.80
2023-03-24T10:28:20.945Z,6.03
2023-03-24T10:30:51.518Z,5.68
2023-03-24T10:33:18.472Z,8.40
2023-03-24T10:35:57.136Z,6.88
2023-03-24T10:38:24.426Z,7.15
2023-03-24T10:40:54.344Z,6.72
2023-03-24T10:43:23.297Z,5.28
2023-03-24T10:45:53.697Z,6.70
2023-03-24T10:48:36.043Z,6.53
2023-03-24T10:51:03.657Z,5.78
2023-03-24T10:53:30.636Z,7.20
2023-03-24T10:55:58.109Z,8.82
2023-03-24T10:58:37.608Z,8.27
2023-03-24T11:01:21.438Z,7.32
2023-03-24T11:03:49.965Z,6.03
2023-03-24T11:06:19.648Z,6.88
2023-03-24T11:08:46.790Z,7.05
2023-03-24T11:11:35.034Z,7.22
2023-03-24T11:14:03.267Z,6.68
2023-03-24T11:16:35.990Z,7.82
2023-03-24T11:19:18.645Z,6.55
2023-03-24T11:21:48.177Z,5.88
2023-03-24T11:24:20.259Z,8.95
2023-03-24T11:27:02.167Z,6.80
2023-03-24T11:29:32.807Z,7.25
2023-03-24T11:32:11.265Z,8.48
2023-03-24T11:34:44.762Z,10.02
2023-03-24T11:37:20.038Z,7.55
2023-03-24T11:40:15.465Z,5.35
2023-03-24T11:42:52.264Z,6.85
2023-03-24T11:45:28.638Z,6.85
2023-03-24T11:47:58.577Z,7.07
2023-03-24T11:50:38.824Z,8.10
2023-03-24T11:53:21.470Z,5.53
2023-03-24T11:55:59.659Z,5.82
2023-03-24T11:58:50.465Z,5.53
2023-03-24T12:01:25.626Z,5.03
2023-03-24T12:04:23.216Z,5.93
2023-03-24T12:07:07.622Z,5.35
2023-03-24T12:09:53.386Z,7.47
2023-03-24T12:12:36.300Z,9.95
2023-03-24T12:15:26.652Z,6.53
2023-03-24T12:18:16.470Z,7.65
2023-03-24T12:21:05.182Z,4.95
2023-03-24T12:23:59.345Z,6.78
2023-03-24T12:26:34.613Z,8.70
2023-03-24T12:29:15.508Z,6.28
2023-03-24T12:32:16.567Z,7.78
2023-03-24T12:35:17.202Z,9.23
2023-03-24T12:38:06.155Z,7.47
2023-03-24T12:40:56.113Z,6.50
2023-03-24T12:44:22.038Z,5.53
2023-03-24T12:47:03.065Z,4.40
2023-03-24T12:50:02.322Z,8.63
2023-03-24T12:53:23.159Z,6.18
2023-03-24T12:55:59.421Z,8.35
2023-03-24T12:58:58.054Z,11.10
2023-03-24T13:01:50.298Z,6.18
2023-03-24T13:04:32.564Z,10.13
2023-03-24T13:07:11.588Z,5.28
2023-03-24T13:10:06.817Z,3.45
2023-03-24T13:12:54.186Z,5.57
2023-03-24T13:15:27.583Z,6.22
2023-03-24T13:18:09.823Z,5.75
2023-03-24T13:20:46.738Z,5.82
2023-03-24T13:23:23.152Z,4.90
2023-03-24T13:25:56.358Z,6.53
2023-03-24T13:28:31.329Z,6.38
2023-03-24T13:31:02.695Z,6.70
2023-03-24T13:33:32.376Z,7.35
2023-03-24T13:36:17.418Z,4.18
2023-03-24T13:38:53.146Z,5.95
2023-03-24T13:41:29.058Z,6.65
2023-03-24T13:44:02.366Z,5.72
2023-03-24T13:46:29.706Z,7.78
2023-03-24T13:48:58.750Z,5.68
2023-03-24T13:51:33.046Z,8.30
2023-03-24T13:54:22.617Z,7.43
2023-03-24T13:57:00.652Z,4.65
2023-03-24T13:59:32.144Z,6.57
2023-03-24T14:02:17.757Z,7.25
2023-03-24T14:04:47.659Z,6.88
2023-03-24T14:07:32.609Z,8.52
2023-03-24T14:10:03.175Z,5.85
2023-03-24T14:12:32.861Z,7.93
2023-03-24T14:15:15.073Z,5.90
2023-03-24T14:17:53.768Z,6.03
2023-03-24T14:20:38.568Z,7.47
2023-03-24T14:23:05.753Z,6.13
2023-03-24T14:25:33.963Z,6.47
2023-03-24T14:28:21.283Z,6.35
2023-03-24T14:31:17.706Z,4.93
2023-03-24T14:33:54.162Z,8.27
2023-03-24T14:36:35.254Z,8.70
2023-03-24T14:39:14.537Z,23.00
2023-03-24T14:41:44.351Z,12.57
2023-03-24T14:44:11.617Z,6.53
2023-03-24T14:46:39.865Z,6.00
2023-03-24T14:49:29.364Z,6.78
2023-03-24T14:52:12.913Z,6.57
2023-03-24T14:55:02.260Z,6.65
2023-03-24T14:57:34.473Z,9.00
2023-03-24T15:00:22.632Z,6.28
2023-03-24T15:02:52.718Z,7.57
2023-03-24T15:05:31.868Z,6.93
2023-03-24T15:08:33.145Z,7.38
2023-03-24T15:11:04.613Z,7.65
2023-03-24T15:13:42.702Z,4.97
2023-03-24T15:16:12.758Z,7.45
2023-03-24T15:21:41.244Z,10.85
2023-03-24T15:24:23.747Z,8.88
2023-03-24T15:26:54.689Z,12.27
2023-03-24T15:29:22.364Z,14.32
2023-03-24T15:31:50.441Z,20.30
2023-03-24T15:34:40.977Z,13.70
2023-03-24T15:37:32.536Z,12.10
2023-03-24T15:40:14.766Z,12.48
2023-03-24T15:42:46.078Z,11.80
2023-03-24T15:45:28.322Z,10.57
2023-03-24T15:47:56.244Z,9.43
2023-03-24T15:50:41.551Z,10.60
2023-03-24T15:53:14.377Z,13.27
2023-03-24T15:55:43.543Z,10.02
2023-03-24T15:58:28.569Z,11.05
2023-03-24T16:01:00.080Z,11.23
2023-03-24T16:03:27.830Z,11.60
2023-03-24T16:05:56.880Z,12.75
2023-03-24T16:08:39.320Z,9.25
2023-03-24T16:11:11.963Z,12.27
2023-03-24T16:13:44.970Z,11.80
2023-03-24T16:16:15.165Z,10.85
2023-03-24T16:18:44.975Z,13.98
2023-03-24T16:21:17.179Z,11.93
2023-03-24T16:23:45.478Z,14.02
2023-03-24T16:26:14.810Z,17.58
2023-03-24T16:28:41.818Z,15.70
2023-03-24T16:31:35.677Z,16.88
2023-03-24T16:34:02.588Z,13.73
2023-03-24T16:36:30.270Z,15.88
2023-03-24T16:38:59.446Z,13.52
2023-03-24T16:41:26.751Z,23.63
2023-03-24T16:43:54.178Z,40.65
2023-03-24T16:46:31.445Z,27.55
2023-03-24T16:48:58.892Z,19.48
2023-03-24T16:51:27.249Z,14.82
2023-03-24T16:53:54.115Z,17.23
2023-03-24T16:56:22.898Z,11.07
2023-03-24T16:58:53.295Z,12.25
2023-03-24T17:01:35.819Z,11.82
2023-03-24T17:04:10.371Z,17.65
2023-03-24T17:06:39.922Z,14.73
2023-03-24T17:09:08.289Z,17.45
2023-03-24T17:11:48.840Z,20.65
2023-03-24T17:14:15.940Z,12.00
2023-03-24T17:16:45.264Z,21.30
2023-03-24T17:19:17.411Z,14.82
2023-03-24T17:21:50.332Z,22.38
2023-03-24T17:24:17.789Z,14.18
2023-03-24T17:26:44.976Z,24.00
2023-03-24T17:29:13.659Z,26.65
2023-03-24T17:31:43.169Z,16.83
2023-03-24T17:36:44.658Z,19.27
2023-03-24T17:39:16.760Z,16.83
2023-03-24T17:41:44.377Z,21.42
2023-03-24T17:44:11.328Z,11.30
2023-03-24T17:46:38.700Z,16.88
2023-03-24T17:49:05.768Z,20.65
2023-03-24T17:51:33.219Z,28.90
2023-03-24T17:54:00.821Z,20.77
2023-03-24T17:56:28.013Z,20.40
2023-03-24T17:58:56.424Z,17.08
2023-03-24T18:01:23.847Z,18.90
2023-03-24T18:03:50.882Z,19.27
2023-03-24T18:06:18.246Z,12.93
2023-03-24T18:08:45.330Z,28.75
2023-03-24T18:11:14.851Z,19.98
2023-03-24T18:16:20.842Z,21.92
2023-03-24T18:21:16.533Z,16.13
2023-03-24T18:23:44.015Z,18.80
2023-03-24T18:26:11.286Z,23.92
2023-03-24T18:28:39.119Z,18.13
2023-03-24T18:31:12.848Z,20.92
2023-03-24T18:33:42.798Z,20.02
2023-03-24T18:36:10.630Z,20.25
2023-03-24T18:38:37.727Z,18.83
2023-03-24T18:41:07.471Z,19.25
2023-03-24T18:43:37.847Z,18.42
2023-03-24T18:46:09.498Z,16.52
2023-03-24T18:48:41.929Z,16.17
2023-03-24T18:51:10.304Z,18.00
2023-03-24T18:53:37.535Z,18.02
2023-03-24T18:56:06.081Z,17.85
2023-03-24T18:58:33.857Z,15.68
2023-03-24T19:01:07.066Z,16.60
2023-03-24T19:03:35.838Z,16.10
2023-03-24T19:06:07.044Z,17.13
2023-03-24T19:08:38.004Z,17.20
2023-03-24T19:11:05.731Z,31.00
2023-03-24T19:13:33.095Z,14.40
2023-03-24T19:16:00.460Z,17.80
2023-03-24T19:18:27.433Z,21.13
2023-03-24T19:20:57.359Z,30.83
2023-03-24T19:23:25.779Z,19.77
2023-03-24T19:25:56.263Z,15.25
2023-03-24T19:28:25.039Z,15.93
2023-03-24T19:30:53.425Z,15.25
2023-03-24T19:33:20.590Z,17.85
2023-03-24T19:35:48.779Z,13.60
2023-03-24T19:38:17.152Z,16.38
2023-03-24T19:40:45.068Z,14.63
2023-03-24T19:43:12.115Z,13.70
2023-03-24T19:45:42.973Z,15.02
2023-03-24T19:48:10.902Z,15.23
2023-03-24T19:50:38.370Z,15.38
2023-03-24T19:53:05.609Z,33.20
2023-03-24T19:55:33.620Z,15.48
2023-03-24T19:58:00.635Z,90.05
2023-03-24T20:00:28.343Z,26.73
2023-03-24T20:02:55.411Z,16.48
2023-03-24T20:05:22.718Z,9.50
2023-03-24T20:07:49.735Z,10.93
2023-03-24T20:10:17.136Z,17.02
2023-03-24T20:12:44.066Z,11.88
2023-03-24T20:15:11.627Z,9.25
2023-03-24T20:17:40.647Z,13.00
2023-03-24T20:22:36.342Z,8.02
2023-03-24T20:25:04.958Z,13.80
2023-03-24T20:27:32.170Z,11.63
2023-03-24T20:29:59.399Z,15.10
2023-03-24T20:32:26.357Z,13.20
2023-03-24T20:34:54.420Z,9.23
2023-03-24T20:37:21.318Z,9.32
2023-03-24T20:39:48.561Z,6.32
2023-03-24T20:42:17.546Z,9.02
2023-03-24T20:47:11.557Z,9.95
2023-03-24T20:49:38.688Z,14.35
2023-03-24T20:52:05.706Z,10.73
2023-03-24T20:54:32.890Z,12.18
2023-03-24T20:56:59.787Z,8.70
2023-03-24T20:59:27.044Z,9.00
2023-03-24T21:01:53.954Z,9.65
2023-03-24T21:04:21.225Z,10.82
2023-03-24T21:06:48.072Z,7.63
2023-03-24T21:09:15.520Z,11.05
2023-03-24T21:11:42.424Z,15.95
2023-03-24T21:14:09.627Z,31.70
2023-03-24T21:16:37.516Z,21.30
2023-03-24T21:19:05.105Z,37.80
2023-03-24T21:21:32.411Z,16.45
2023-03-24T21:24:00.577Z,35.10
2023-03-24T21:26:27.980Z,34.65
2023-03-24T21:28:57.967Z,56.00
2023-03-24T21:31:27.526Z,33.10
2023-03-24T21:33:56.507Z,16.95
2023-03-24T21:36:25.045Z,9.70
2023-03-24T21:38:54.055Z,15.02
2023-03-24T21:41:22.377Z,9.93
2023-03-24T21:43:54.336Z,5.28
2023-03-24T21:46:22.353Z,6.45
2023-03-24T21:48:51.943Z,6.88
2023-03-24T21:53:47.881Z,6.15
2023-03-24T21:56:14.842Z,9.55
2023-03-24T21:58:42.281Z,10.40
2023-03-24T22:01:09.814Z,7.40
2023-03-24T22:03:37.317Z,7.70
2023-03-24T22:06:06.094Z,6.22
2023-03-24T22:08:33.292Z,7.78
2023-03-24T22:11:04.178Z,6.70
2023-03-24T22:13:33.471Z,6.07
2023-03-24T22:16:03.103Z,5.78
2023-03-24T22:18:33.036Z,6.45
2023-03-24T22:21:08.384Z,7.78
2023-03-24T22:23:39.706Z,5.40
2023-03-24T22:26:10.468Z,6.53
2023-03-24T22:28:38.358Z,7.97
2023-03-24T22:31:11.572Z,11.85
2023-03-24T22:33:38.877Z,6.97
2023-03-24T22:36:06.886Z,9.50
2023-03-24T22:38:34.620Z,6.83
2023-03-24T22:41:07.338Z,8.20
2023-03-24T22:43:35.749Z,7.93
2023-03-24T22:46:03.635Z,6.30
2023-03-24T22:48:31.428Z,4.85
2023-03-24T22:50:58.305Z,8.65
2023-03-24T22:53:25.660Z,4.38
2023-03-24T22:55:53.050Z,7.85
2023-03-24T22:58:20.539Z,5.75
2023-03-24T23:00:50.071Z,6.07
2023-03-24T23:03:17.451Z,5.78
2023-03-24T23:05:46.176Z,5.28
2023-03-24T23:08:15.577Z,6.40
2023-03-24T23:10:44.847Z,6.22
2023-03-24T23:13:13.378Z,6.95
2023-03-24T23:15:42.790Z,5.40
2023-03-24T23:18:10.876Z,8.65
2023-03-24T23:20:38.026Z,9.05
2023-03-24T23:23:06.827Z,8.00
2023-03-24T23:25:40.390Z,9.40
2023-03-24T23:28:07.252Z,7.50
2023-03-24T23:30:34.469Z,9.13
2023-03-24T23:33:03.634Z,7.05
2023-03-24T23:35:33.310Z,8.93
2023-03-24T23:40:28.452Z,11.30
2023-03-24T23:42:55.334Z,8.65
2023-03-24T23:45:22.760Z,11.85
2023-03-24T23:47:51.879Z,8.88
2023-03-24T23:50:20.621Z,9.27
2023-03-24T23:52:48.061Z,8.73
2023-03-24T23:55:17.974Z,7.88
2023-03-24T23:57:46.885Z,7.70
